Time;durP1;ratioP1;P1;durP2;ratioP2;P2;SDS_P1;SDS_P2;PMS_P1;PMS_P2;Temp;Humidity;BMP_temperature;BMP_pressure;BME280_temperature;BME280_humidity;BME280_pressure;Samples;Min_cycle;Max_cycle;Signal;HPM_P1;HPM_P2
2022/02/18 00:00:25;;;;;;;39.40;24.55;;;;;;;6.78;89.07;98483.66;1735621;82;21231;-59
2022/02/18 00:03:32;;;;;;;34.18;22.98;;;;;;;6.72;89.15;98500.77;1735488;82;21199;-60
2022/02/18 00:06:38;;;;;;;35.70;23.50;;;;;;;6.67;89.26;98512.75;1735462;82;21212;-60
2022/02/18 00:09:45;;;;;;;33.65;24.20;;;;;;;6.63;89.26;98507.91;1735587;82;21212;-61
2022/02/18 00:12:51;;;;;;;37.13;24.25;;;;;;;6.61;89.35;98512.16;1735734;82;21231;-60
2022/02/18 00:15:58;;;;;;;38.60;24.90;;;;;;;6.59;89.36;98521.05;1735326;82;21233;-61
2022/02/18 00:19:03;;;;;;;39.88;25.25;;;;;;;6.54;89.36;98522.66;1735563;82;21192;-60
2022/02/18 00:22:10;;;;;;;37.03;24.90;;;;;;;6.52;89.44;98529.64;1735366;82;21216;-60
2022/02/18 00:25:15;;;;;;;31.57;21.40;;;;;;;6.54;89.58;98524.02;1735306;82;21208;-60
2022/02/18 00:28:22;;;;;;;35.35;24.55;;;;;;;6.56;89.69;98508.36;1735352;82;21180;-61
2022/02/18 00:31:29;;;;;;;36.08;24.45;;;;;;;6.55;89.62;98498.53;1735388;82;21282;-60
2022/02/18 00:34:36;;;;;;;35.65;24.80;;;;;;;6.56;89.74;98510.56;1751966;78;21186;-60
2022/02/18 00:37:41;;;;;;;35.25;24.45;;;;;;;6.58;89.82;98517.17;1711353;82;21276;-61
2022/02/18 00:40:48;;;;;;;36.48;25.08;;;;;;;6.57;89.89;98517.67;1735624;82;21200;-60
2022/02/18 00:43:53;;;;;;;33.35;24.23;;;;;;;6.56;89.89;98513.80;1700074;84;21349;-60
2022/02/18 00:47:00;;;;;;;33.67;24.23;;;;;;;6.50;89.88;98511.33;1770824;81;21398;-60
2022/02/18 00:50:07;;;;;;;37.40;25.00;;;;;;;6.44;89.86;98508.58;1735653;82;21255;-59
2022/02/18 00:53:14;;;;;;;36.03;24.25;;;;;;;6.34;89.91;98507.55;1698693;84;21380;-60
2022/02/18 00:56:18;;;;;;;33.60;23.73;;;;;;;6.28;89.93;98522.42;1735686;82;21386;-60
2022/02/18 00:59:25;;;;;;;37.42;25.27;;;;;;;6.21;89.95;98538.66;1700587;84;21215;-60
2022/02/18 01:02:33;;;;;;;34.43;23.90;;;;;;;6.15;90.04;98533.15;1770821;81;21232;-60
2022/02/18 01:05:38;;;;;;;39.35;25.40;;;;;;;6.10;90.12;98530.48;1735773;82;21400;-60
2022/02/18 01:08:43;;;;;;;36.63;26.27;;;;;;;6.04;90.22;98539.94;1700207;84;21934;-60
2022/02/18 01:11:48;;;;;;;34.15;24.27;;;;;;;5.96;90.31;98534.62;1770917;80;21551;-60
2022/02/18 01:14:55;;;;;;;38.95;24.85;;;;;;;5.90;90.38;98554.38;1735834;82;21212;-61
2022/02/18 01:18:04;;;;;;;37.05;25.40;;;;;;;5.83;90.41;98548.04;1698706;84;21793;-60
2022/02/18 01:21:10;;;;;;;39.20;24.95;;;;;;;5.73;90.47;98544.73;1735600;82;21284;-59
2022/02/18 01:24:15;;;;;;;37.60;26.23;;;;;;;5.68;90.54;98556.17;1699752;83;21408;-60
2022/02/18 01:27:21;;;;;;;40.55;26.10;;;;;;;5.62;90.67;98552.02;1769423;80;21359;-61
2022/02/18 01:30:28;;;;;;;41.80;25.95;;;;;;;5.56;90.70;98543.28;1769530;80;21844;-60
2022/02/18 01:33:34;;;;;;;40.90;25.82;;;;;;;5.51;90.81;98551.14;1769766;80;21355;-61
2022/02/18 01:36:41;;;;;;;38.40;25.15;;;;;;;5.44;90.88;98555.11;1768304;80;21359;-60
2022/02/18 01:39:46;;;;;;;39.08;26.73;;;;;;;5.38;90.97;98555.02;1770666;79;21185;-60
2022/02/18 01:42:53;;;;;;;44.83;28.35;;;;;;;5.30;90.99;98547.83;1770754;81;21205;-59
2022/02/18 01:46:02;;;;;;;45.55;28.42;;;;;;;5.26;91.18;98552.46;1770788;79;21389;-60
2022/02/18 01:49:07;;;;;;;43.02;27.40;;;;;;;5.22;91.37;98561.98;1770638;79;21390;-60
2022/02/18 01:52:15;;;;;;;43.42;27.02;;;;;;;5.18;91.46;98552.55;1770795;81;21193;-61
2022/02/18 01:55:22;;;;;;;42.48;27.20;;;;;;;5.12;91.53;98561.44;1770704;79;21236;-60
2022/02/18 01:58:30;;;;;;;42.50;27.95;;;;;;;5.06;91.61;98563.55;1764045;81;21571;-61
2022/02/18 02:01:36;;;;;;;42.25;26.85;;;;;;;5.02;91.73;98566.28;1770802;80;21709;-60
2022/02/18 02:04:41;;;;;;;41.23;27.75;;;;;;;4.99;91.85;98571.57;1771075;79;21256;-60
2022/02/18 02:07:47;;;;;;;43.02;27.62;;;;;;;4.96;91.97;98576.02;1770784;81;21745;-59
2022/02/18 02:10:55;;;;;;;44.55;28.27;;;;;;;4.95;92.08;98574.84;1741577;81;21185;-59
2022/02/18 02:14:00;;;;;;;44.73;28.85;;;;;;;4.92;92.10;98579.25;1740296;82;21212;-60
2022/02/18 02:17:07;;;;;;;46.70;28.67;;;;;;;4.88;92.09;98586.08;1740256;82;21193;-59
2022/02/18 02:20:16;;;;;;;39.13;26.77;;;;;;;4.86;92.18;98592.19;1740285;81;21283;-60
2022/02/18 02:23:24;;;;;;;40.88;27.10;;;;;;;4.85;92.28;98587.80;1740809;82;21217;-60
2022/02/18 02:26:31;;;;;;;38.38;26.15;;;;;;;4.83;92.36;98594.77;1740339;81;21322;-60
2022/02/18 02:29:37;;;;;;;40.73;28.05;;;;;;;4.81;92.40;98595.95;1740480;81;21201;-60
2022/02/18 02:32:44;;;;;;;42.48;28.55;;;;;;;4.80;92.43;98590.22;1740335;82;21867;-59
2022/02/18 02:35:51;;;;;;;44.42;27.90;;;;;;;4.78;92.39;98597.17;1740365;81;21324;-59
2022/02/18 02:38:58;;;;;;;43.35;27.70;;;;;;;4.76;92.33;98599.75;1733043;82;21224;-60
2022/02/18 02:42:03;;;;;;;41.70;28.32;;;;;;;4.73;92.32;98607.72;1753636;81;21363;-59
2022/02/18 02:45:11;;;;;;;46.50;28.10;;;;;;;4.73;92.37;98623.13;1740219;81;21645;-60
2022/02/18 02:48:17;;;;;;;40.35;26.50;;;;;;;4.72;92.39;98631.78;1751690;81;21773;-61
2022/02/18 02:51:28;;;;;;;47.83;28.32;;;;;;;4.72;92.41;98636.36;1740420;81;21363;-60
2022/02/18 02:54:35;;;;;;;47.38;27.93;;;;;;;4.72;92.42;98622.80;1739983;81;21225;-60
2022/02/18 02:57:44;;;;;;;49.08;28.95;;;;;;;4.69;92.32;98633.51;1739802;82;21738;-61
2022/02/18 03:00:51;;;;;;;40.90;28.23;;;;;;;4.68;92.29;98633.69;1740202;81;21204;-61
2022/02/18 03:04:00;;;;;;;46.23;27.80;;;;;;;4.63;92.27;98631.00;1739992;82;21347;-61
2022/02/18 03:07:05;;;;;;;41.98;26.68;;;;;;;4.62;92.22;98632.53;1740741;82;21201;-61
2022/02/18 03:10:15;;;;;;;40.90;26.87;;;;;;;4.59;92.09;98639.17;1757728;81;21726;-59
2022/02/18 03:13:23;;;;;;;42.38;27.27;;;;;;;4.56;91.99;98643.59;1768920;80;21344;-60
2022/02/18 03:16:29;;;;;;;37.65;25.88;;;;;;;4.55;91.85;98648.67;1769732;80;21441;-59
2022/02/18 03:19:35;;;;;;;39.83;27.60;;;;;;;4.51;91.57;98643.30;1769256;80;21229;-60
2022/02/18 03:22:44;;;;;;;43.25;26.52;;;;;;;4.51;91.41;98646.00;1768856;80;21371;-59
2022/02/18 03:25:50;;;;;;;43.58;26.42;;;;;;;4.51;91.26;98644.65;1769595;80;21343;-59
2022/02/18 03:28:55;;;;;;;43.23;26.75;;;;;;;4.54;91.29;98644.78;1769574;80;21336;-61
2022/02/18 03:32:05;;;;;;;40.00;27.15;;;;;;;4.55;91.24;98646.48;1769318;80;21340;-60
2022/02/18 03:35:13;;;;;;;41.02;26.73;;;;;;;4.54;91.02;98659.69;1769077;80;21348;-60
2022/02/18 03:38:18;;;;;;;53.42;31.12;;;;;;;4.53;90.79;98657.48;1769664;79;21442;-60
2022/02/18 03:41:30;;;;;;;51.98;29.75;;;;;;;4.45;90.32;98660.27;1769312;80;21351;-60
2022/02/18 03:44:32;;;;;;;46.83;27.90;;;;;;;4.32;89.87;98666.78;1768802;80;21343;-60
2022/02/18 03:47:40;;;;;;;43.23;26.73;;;;;;;4.23;89.66;98674.59;1769077;81;21344;-61
2022/02/18 03:50:44;;;;;;;37.93;26.07;;;;;;;4.14;89.45;98693.77;1769116;80;21395;-59
2022/02/18 03:53:49;;;;;;;38.40;24.92;;;;;;;4.05;89.43;98706.52;1769041;80;21178;-59
2022/02/18 03:56:56;;;;;;;39.48;25.35;;;;;;;3.98;89.48;98710.93;1769141;80;21450;-59
2022/02/18 04:00:01;;;;;;;41.60;24.52;;;;;;;3.95;89.61;98711.28;1769532;80;21276;-59
2022/02/18 04:03:09;;;;;;;39.55;24.37;;;;;;;3.97;89.84;98707.90;1769146;81;21343;-59
2022/02/18 04:06:32;;;;;;;37.90;24.12;;;;;;;3.97;89.83;98710.61;1769390;81;21328;-58
2022/02/18 04:09:40;;;;;;;34.83;23.80;;;;;;;3.98;89.89;98706.05;1769320;81;21247;-59
2022/02/18 04:12:45;;;;;;;36.55;23.22;;;;;;;3.97;89.96;98701.63;1769016;80;21375;-60
2022/02/18 04:15:54;;;;;;;35.43;24.10;;;;;;;3.98;90.01;98697.39;1769491;79;21198;-60
2022/02/18 04:19:01;;;;;;;39.00;23.42;;;;;;;3.97;90.06;98702.48;1768812;80;21202;-60
2022/02/18 04:22:09;;;;;;;36.35;23.40;;;;;;;3.98;90.06;98707.41;1769336;80;21196;-60
2022/02/18 04:25:15;;;;;;;36.00;23.73;;;;;;;3.98;89.98;98711.46;1768767;80;21793;-60
2022/02/18 04:28:20;;;;;;;44.13;25.40;;;;;;;3.97;89.91;98717.88;1768881;80;21911;-59
2022/02/18 04:31:28;;;;;;;41.15;22.93;;;;;;;3.93;89.57;98732.25;1769649;80;21316;-60
2022/02/18 04:34:33;;;;;;;38.73;23.52;;;;;;;3.88;89.37;98735.17;1769276;80;21348;-60
2022/02/18 04:37:39;;;;;;;39.58;23.92;;;;;;;3.87;89.46;98741.08;1769053;80;21447;-59
2022/02/18 04:40:45;;;;;;;35.15;23.02;;;;;;;3.89;89.50;98743.61;1767640;80;21746;-60
2022/02/18 04:43:52;;;;;;;34.53;22.00;;;;;;;3.93;89.48;98761.20;1769455;80;21888;-59
2022/02/18 04:46:58;;;;;;;38.95;25.65;;;;;;;4.00;89.42;98764.39;1769175;80;21215;-59
2022/02/18 04:50:04;;;;;;;47.88;32.05;;;;;;;4.06;89.32;98775.87;1769239;80;21359;-60
2022/02/18 04:53:11;;;;;;;51.70;33.90;;;;;;;4.14;89.22;98794.80;1770218;80;21687;-59
2022/02/18 04:56:19;;;;;;;44.20;30.90;;;;;;;4.22;89.15;98789.36;1762377;80;21363;-60
2022/02/18 04:59:24;;;;;;;39.23;25.55;;;;;;;4.30;88.90;98797.45;1769235;81;21344;-59
2022/02/18 05:02:30;;;;;;;38.38;25.43;;;;;;;4.37;88.77;98788.97;1768860;81;21260;-59
2022/02/18 05:05:38;;;;;;;35.45;23.70;;;;;;;4.45;88.67;98795.72;1769687;80;21201;-59
2022/02/18 05:08:43;;;;;;;40.03;25.43;;;;;;;4.53;88.52;98795.65;1769174;80;21205;-59
2022/02/18 05:11:49;;;;;;;46.13;28.50;;;;;;;4.60;88.27;98796.64;1767137;80;21197;-60
2022/02/18 05:14:55;;;;;;;39.42;25.50;;;;;;;4.69;88.04;98810.16;1768580;80;21332;-59
2022/02/18 05:18:00;;;;;;;33.95;22.90;;;;;;;4.72;87.72;98806.59;1768719;80;21260;-59
2022/02/18 05:21:06;;;;;;;38.08;22.75;;;;;;;4.78;87.36;98820.77;1768852;80;21265;-59
2022/02/18 05:24:14;;;;;;;30.85;19.40;;;;;;;4.81;87.10;98823.62;1768916;80;21588;-59
2022/02/18 05:27:20;;;;;;;27.07;18.23;;;;;;;4.84;86.83;98828.69;1768957;80;21193;-60
2022/02/18 05:30:24;;;;;;;31.48;19.35;;;;;;;4.88;86.53;98840.38;1766324;79;21841;-60
2022/02/18 05:33:29;;;;;;;32.40;20.45;;;;;;;4.91;86.29;98843.23;1763528;80;21189;-60
2022/02/18 05:36:39;;;;;;;32.17;20.10;;;;;;;4.95;86.03;98856.79;1762605;80;21794;-60
2022/02/18 05:39:47;;;;;;;31.20;20.05;;;;;;;4.94;85.51;98855.94;1752077;79;21348;-60
2022/02/18 05:42:52;;;;;;;31.05;17.82;;;;;;;4.86;84.83;98871.38;1769119;80;21197;-60
2022/02/18 05:45:57;;;;;;;25.02;16.45;;;;;;;4.75;84.55;98875.34;1769935;79;21960;-60
2022/02/18 05:49:04;;;;;;;23.10;14.73;;;;;;;4.72;84.50;98884.33;1769078;80;21192;-60
2022/02/18 05:52:12;;;;;;;20.95;14.07;;;;;;;4.71;84.67;98885.36;1734382;82;21176;-59
2022/02/18 05:55:17;;;;;;;22.55;15.43;;;;;;;4.80;85.01;98880.23;1684475;84;21779;-60
2022/02/18 05:58:24;;;;;;;18.05;13.75;;;;;;;4.91;85.09;98876.62;1762884;81;21172;-60
2022/02/18 06:01:30;;;;;;;22.37;14.25;;;;;;;5.04;85.05;98890.46;1768267;81;21208;-60
2022/02/18 06:04:35;;;;;;;16.87;12.37;;;;;;;5.16;84.88;98892.23;1756209;79;21975;-60
2022/02/18 06:07:45;;;;;;;18.82;12.28;;;;;;;5.24;84.61;98897.13;1756626;80;21241;-61
2022/02/18 06:10:53;;;;;;;20.30;12.37;;;;;;;5.32;84.28;98903.00;1764827;80;21628;-59
2022/02/18 06:13:59;;;;;;;19.87;13.10;;;;;;;5.39;83.90;98902.63;1738240;82;21193;-61
2022/02/18 06:17:09;;;;;;;20.00;12.75;;;;;;;5.46;83.67;98899.52;1743410;80;21227;-59
2022/02/18 06:20:16;;;;;;;17.77;12.58;;;;;;;5.51;83.35;98902.54;1762078;79;21570;-61
2022/02/18 06:23:21;;;;;;;23.27;13.50;;;;;;;5.58;83.13;98906.23;1780462;80;21812;-60
2022/02/18 06:26:26;;;;;;;19.25;12.85;;;;;;;5.62;82.86;98916.55;1768109;81;21201;-60
2022/02/18 06:29:32;;;;;;;19.15;12.47;;;;;;;5.69;82.65;98919.39;1746900;81;21569;-60
2022/02/18 06:32:39;;;;;;;18.17;12.75;;;;;;;5.74;82.35;98911.55;1752758;81;21506;-60
2022/02/18 06:35:45;;;;;;;17.37;11.63;;;;;;;5.80;82.08;98918.96;1761885;80;21208;-60
2022/02/18 06:38:50;;;;;;;22.73;12.45;;;;;;;5.84;81.85;98909.45;1769323;80;21730;-60
2022/02/18 06:41:57;;;;;;;24.65;12.13;;;;;;;5.89;81.72;98911.96;1769551;79;21209;-60
2022/02/18 06:45:02;;;;;;;16.70;10.45;;;;;;;5.95;81.51;98912.59;1769699;80;21177;-60
2022/02/18 06:48:12;;;;;;;16.50;10.35;;;;;;;6.00;81.19;98909.31;1770189;81;21323;-59
2022/02/18 06:51:18;;;;;;;13.35;8.10;;;;;;;6.03;80.93;98907.59;1783093;78;21415;-60
2022/02/18 06:54:26;;;;;;;10.78;6.25;;;;;;;6.09;80.77;98912.28;1768952;80;21741;-60
2022/02/18 06:57:46;;;;;;;14.20;6.55;;;;;;;6.13;80.44;98913.63;1760521;80;21167;-60
2022/02/18 07:00:51;;;;;;;14.68;7.08;;;;;;;6.14;80.14;98923.98;1769982;79;21252;-59
2022/02/18 07:03:58;;;;;;;10.35;6.40;;;;;;;6.12;79.93;98924.13;1770211;80;21597;-60
2022/02/18 07:07:07;;;;;;;10.10;5.70;;;;;;;6.12;79.96;98945.05;1768364;81;21364;-61
2022/02/18 07:10:13;;;;;;;8.70;4.80;;;;;;;6.16;80.02;98949.92;1768755;80;21206;-61
2022/02/18 07:13:19;;;;;;;5.75;4.47;;;;;;;6.20;79.98;98963.45;1768667;80;21177;-60
2022/02/18 07:16:25;;;;;;;6.83;5.10;;;;;;;6.18;80.02;98969.61;1768097;81;21182;-60
2022/02/18 07:19:32;;;;;;;8.10;5.20;;;;;;;6.15;80.12;98969.98;1768114;81;21209;-60
2022/02/18 07:22:40;;;;;;;7.60;5.22;;;;;;;6.14;80.27;98970.16;1770024;81;21205;-60
2022/02/18 07:25:45;;;;;;;8.90;5.90;;;;;;;6.13;80.51;98976.09;1763083;80;21209;-61
2022/02/18 07:28:52;;;;;;;7.35;5.25;;;;;;;6.18;80.77;98976.91;1765306;81;21331;-60
2022/02/18 07:31:58;;;;;;;7.50;4.67;;;;;;;6.23;80.83;98979.42;1770544;81;21196;-60
2022/02/18 07:35:04;;;;;;;11.18;5.75;;;;;;;6.30;80.89;98987.16;1769319;81;21272;-60
2022/02/18 07:38:11;;;;;;;7.10;4.85;;;;;;;6.37;80.78;98992.20;1768566;81;21925;-60
2022/02/18 07:41:17;;;;;;;8.83;5.80;;;;;;;6.35;80.72;98994.75;1764534;81;21720;-60
2022/02/18 07:44:23;;;;;;;8.98;6.75;;;;;;;6.32;80.71;99005.48;1765453;81;22037;-60
2022/02/18 07:47:29;;;;;;;7.90;5.50;;;;;;;6.25;80.67;99009.95;1760620;81;21382;-61
2022/02/18 07:50:36;;;;;;;8.08;5.42;;;;;;;6.23;80.81;99016.60;1768501;79;21253;-62
2022/02/18 07:53:42;;;;;;;6.08;4.70;;;;;;;6.22;80.93;99021.18;1768666;80;21236;-60
2022/02/18 07:56:47;;;;;;;6.17;5.28;;;;;;;6.21;80.81;99014.07;1739614;82;21401;-58
2022/02/18 07:59:53;;;;;;;6.97;5.10;;;;;;;6.19;80.75;99022.91;1739033;81;22030;-60
2022/02/18 08:03:01;;;;;;;6.58;4.60;;;;;;;6.17;80.75;99031.74;1767383;81;21192;-60
2022/02/18 08:06:09;;;;;;;7.45;4.87;;;;;;;6.15;80.77;99040.61;1753424;81;21272;-58
2022/02/18 08:09:24;;;;;;;4.47;3.60;;;;;;;6.10;80.59;99042.48;1746146;81;21213;-61
2022/02/18 08:12:38;;;;;;;4.50;2.92;;;;;;;6.10;80.47;99051.98;1758565;81;21197;-59
2022/02/18 08:15:54;;;;;;;4.72;2.87;;;;;;;6.10;80.07;99054.70;1767146;81;21330;-61
2022/02/18 08:19:10;;;;;;;2.67;2.17;;;;;;;6.17;79.77;99056.73;1767947;79;21756;-60
2022/02/18 08:22:17;;;;;;;2.95;2.40;;;;;;;6.21;79.21;99066.19;1768486;81;21339;-61
2022/02/18 08:25:24;;;;;;;5.58;2.67;;;;;;;6.25;78.98;99057.50;1754079;81;21223;-60
2022/02/18 08:28:32;;;;;;;3.05;2.25;;;;;;;6.27;78.41;99054.09;1769019;81;21201;-60
2022/02/18 08:31:45;;;;;;;3.98;2.17;;;;;;;6.20;78.20;99058.55;1769685;80;21349;-63
2022/02/18 08:34:55;;;;;;;5.05;2.80;;;;;;;6.18;78.22;99061.98;1770594;81;21209;-59
2022/02/18 08:38:06;;;;;;;2.87;2.20;;;;;;;6.19;78.24;99074.52;1770640;80;21371;-60
2022/02/18 08:41:13;;;;;;;4.58;2.47;;;;;;;6.21;78.08;99079.78;1770008;81;21248;-60
2022/02/18 08:44:19;;;;;;;3.25;2.27;;;;;;;6.26;77.63;99077.38;1767087;81;21288;-59
2022/02/18 08:47:26;;;;;;;3.52;2.42;;;;;;;6.28;77.17;99082.94;1770029;80;21418;-59
2022/02/18 08:50:31;;;;;;;4.08;2.45;;;;;;;6.34;76.28;99100.41;1770214;79;21860;-61
2022/02/18 08:53:40;;;;;;;2.83;2.12;;;;;;;6.33;75.68;99101.45;1768806;81;21738;-58
2022/02/18 08:56:50;;;;;;;3.05;2.20;;;;;;;6.35;75.34;99107.02;1768192;80;21264;-59
2022/02/18 08:59:56;;;;;;;3.35;2.35;;;;;;;6.42;75.01;99099.86;1753458;81;21280;-61
2022/02/18 09:03:34;;;;;;;3.22;2.47;;;;;;;6.43;74.51;99101.53;1757625;81;21180;-61
2022/02/18 09:06:42;;;;;;;4.75;2.95;;;;;;;6.46;74.39;99107.11;1757673;80;21199;-59
2022/02/18 09:09:48;;;;;;;3.17;2.52;;;;;;;6.53;74.56;99113.53;1755844;81;21274;-56
2022/02/18 09:12:57;;;;;;;2.40;1.90;;;;;;;6.60;73.74;99101.73;1742701;81;21708;-57
2022/02/18 09:16:22;;;;;;;3.72;2.12;;;;;;;6.62;72.88;99120.08;1764570;81;21185;-55
2022/02/18 09:19:32;;;;;;;2.50;1.85;;;;;;;6.65;72.21;99122.44;1769345;79;22205;-56
2022/02/18 09:22:39;;;;;;;3.83;2.20;;;;;;;6.67;71.77;99124.97;1752771;80;21220;-56
2022/02/18 09:25:48;;;;;;;4.00;2.60;;;;;;;6.71;72.34;99131.22;1751563;81;21352;-56
2022/02/18 09:28:57;;;;;;;4.12;2.70;;;;;;;6.80;71.98;99134.19;1738940;82;21781;-55
2022/02/18 09:32:04;;;;;;;3.75;1.77;;;;;;;6.81;71.24;99142.70;1738935;82;21715;-55
2022/02/18 09:35:09;;;;;;;2.70;2.00;;;;;;;6.75;70.98;99138.00;1749910;80;21698;-55
2022/02/18 09:38:15;;;;;;;2.80;1.98;;;;;;;6.70;71.12;99143.64;1769480;81;21978;-55
2022/02/18 09:41:22;;;;;;;2.90;2.05;;;;;;;6.70;71.48;99154.02;1757946;81;21729;-56
2022/02/18 09:44:33;;;;;;;2.08;1.52;;;;;;;6.66;70.73;99147.23;1726315;80;23231;-56
2022/02/18 09:47:43;;;;;;;;;;;;;;;6.65;70.26;99161.86;1767303;81;21203;-56
2022/02/18 09:50:52;;;;;;;2.60;1.72;;;;;;;6.71;70.17;99167.06;1783729;79;20206;-56
2022/02/18 09:53:58;;;;;;;2.45;1.95;;;;;;;6.80;69.59;99166.83;1762237;80;21192;-56
2022/02/18 09:57:07;;;;;;;3.50;1.60;;;;;;;6.91;69.38;99179.17;1763307;81;21383;-57
2022/02/18 10:00:15;;;;;;;3.37;1.57;;;;;;;6.96;68.47;99177.58;1751769;81;21221;-56
2022/02/18 10:03:25;;;;;;;2.75;1.90;;;;;;;7.00;68.32;99186.23;1754050;80;21228;-57
2022/02/18 10:06:41;;;;;;;2.55;1.40;;;;;;;7.03;68.05;99191.30;1760074;80;21729;-56
2022/02/18 10:09:50;;;;;;;1.65;1.50;;;;;;;7.19;67.91;99198.83;1756444;80;21243;-55
2022/02/18 10:12:57;;;;;;;1.62;1.50;;;;;;;7.35;67.44;99207.36;1766301;80;21238;-56
2022/02/18 10:16:05;;;;;;;3.75;3.20;;;;;;;7.49;67.44;99221.52;1769795;81;21195;-56
2022/02/18 10:19:15;;;;;;;2.33;1.52;;;;;;;7.56;65.46;99219.23;1769639;80;21234;-56
2022/02/18 10:22:21;;;;;;;2.85;1.90;;;;;;;7.44;64.71;99214.41;1768035;81;21707;-55
2022/02/18 10:25:32;;;;;;;4.10;1.62;;;;;;;7.34;64.80;99224.20;1762046;79;21905;-56
2022/02/18 10:28:40;;;;;;;2.80;1.50;;;;;;;7.23;64.62;99238.78;1743211;81;21680;-56
2022/02/18 10:31:45;;;;;;;2.55;1.70;;;;;;;7.06;64.52;99243.48;1757293;81;21205;-56
2022/02/18 10:35:04;;;;;;;14.58;9.48;;;;;;;6.95;64.44;99245.77;1768904;80;21185;-55
2022/02/18 10:38:11;;;;;;;2.92;1.50;;;;;;;6.84;64.78;99262.00;1769372;80;22079;-56
2022/02/18 10:41:29;;;;;;;1.60;1.20;;;;;;;6.84;64.95;99263.87;1770075;80;21209;-56
2022/02/18 10:44:39;;;;;;;2.00;1.50;;;;;;;6.81;64.46;99271.03;1770204;81;21281;-62
2022/02/18 10:47:46;;;;;;;1.98;1.30;;;;;;;6.78;64.49;99270.03;1772450;80;21363;-56
2022/02/18 10:51:19;;;;;;;2.35;1.60;;;;;;;6.82;64.69;99274.93;1770331;81;22221;-55
2022/02/18 10:54:21;;;;;;;3.30;1.85;;;;;;;7.06;64.90;99276.64;1766167;81;21340;-56
2022/02/18 10:57:32;;;;;;;3.42;1.85;;;;;;;7.42;64.43;99279.11;1765462;80;21349;-55
2022/02/18 11:00:45;;;;;;;1.63;1.20;;;;;;;7.54;63.31;99285.30;1756078;80;21244;-56
2022/02/18 11:03:53;;;;;;;2.35;1.22;;;;;;;7.54;63.02;99292.11;1768854;80;22009;-56
2022/02/18 11:07:00;;;;;;;3.17;1.60;;;;;;;7.45;63.10;99295.91;1761604;80;21260;-56
2022/02/18 11:10:05;;;;;;;2.02;1.77;;;;;;;7.41;63.25;99301.91;1770214;79;21768;-55
2022/02/18 11:13:12;;;;;;;3.70;1.50;;;;;;;7.34;63.17;99315.39;1768719;81;21319;-63
2022/02/18 11:16:24;;;;;;;2.70;1.60;;;;;;;7.33;63.62;99308.77;1769122;80;21208;-60
2022/02/18 11:19:29;;;;;;;2.35;1.42;;;;;;;7.37;63.57;99316.38;1756889;81;21261;-59
2022/02/18 11:22:38;;;;;;;2.20;1.72;;;;;;;7.32;63.68;99313.89;1757562;81;22186;-61
2022/02/18 11:25:48;;;;;;;2.45;1.90;;;;;;;7.28;64.25;99317.98;1752970;80;21360;-62
2022/02/18 11:28:56;;;;;;;3.45;2.20;;;;;;;7.26;64.47;99315.45;1760791;79;21291;-60
2022/02/18 11:32:06;;;;;;;2.60;1.80;;;;;;;7.24;64.74;99316.16;1750195;81;21868;-60
2022/02/18 11:35:39;;;;;;;4.28;2.05;;;;;;;7.26;64.72;99320.06;1759126;79;21745;-60
2022/02/18 11:39:29;;;;;;;3.52;2.22;;;;;;;7.30;64.61;99323.59;1705675;83;21250;-60
2022/02/18 11:43:31;;;;;;;3.98;2.90;;;;;;;7.35;64.34;99328.50;1677966;83;21543;-61
2022/02/18 11:46:38;;;;;;;4.08;2.80;;;;;;;7.39;63.92;99330.67;1705600;83;21260;-60
2022/02/18 11:49:50;;;;;;;5.62;2.77;;;;;;;7.40;63.78;99339.16;1763091;80;21255;-60
2022/02/18 11:53:04;;;;;;;3.52;2.60;;;;;;;7.51;63.83;99345.58;1763779;80;21272;-61
2022/02/18 11:56:17;;;;;;;4.03;2.17;;;;;;;7.63;62.94;99359.08;1751411;80;21228;-60
2022/02/18 11:59:29;;;;;;;3.22;2.20;;;;;;;7.74;61.60;99363.23;1756248;80;21630;-60
2022/02/18 12:02:53;;;;;;;4.37;2.47;;;;;;;7.83;61.34;99364.03;1765347;80;21291;-62
2022/02/18 12:06:23;;;;;;;10.25;7.03;;;;;;;7.93;60.95;99360.55;1769798;80;21275;-61
2022/02/18 12:09:41;;;;;;;5.65;4.00;;;;;;;8.08;60.81;99376.41;1768319;80;21232;-59
2022/02/18 12:12:50;;;;;;;10.48;4.17;;;;;;;8.24;60.04;99372.20;1760748;80;21193;-61
2022/02/18 12:15:56;;;;;;;8.33;5.97;;;;;;;8.24;59.64;99375.78;1766134;81;21209;-60
2022/02/18 12:19:13;;;;;;;5.00;3.22;;;;;;;8.11;59.36;99380.12;1766272;80;21206;-61
2022/02/18 12:22:19;;;;;;;2.77;2.00;;;;;;;7.93;59.33;99391.34;1768504;80;21209;-60
2022/02/18 12:25:29;;;;;;;3.25;2.70;;;;;;;7.74;59.30;99401.91;1768950;79;21694;-61
2022/02/18 12:28:48;;;;;;;4.85;2.72;;;;;;;7.60;59.73;99411.70;1768466;80;21333;-62
2022/02/18 12:32:00;;;;;;;4.05;2.77;;;;;;;7.59;60.29;99419.55;1768263;80;21984;-60
2022/02/18 12:35:17;;;;;;;3.12;2.12;;;;;;;7.66;60.44;99430.57;1767241;80;21762;-59
2022/02/18 12:38:22;;;;;;;3.83;2.10;;;;;;;7.66;59.99;99431.39;1767124;81;21244;-60
2022/02/18 12:41:28;;;;;;;2.55;1.62;;;;;;;7.56;60.07;99442.52;1767717;81;21208;-60
2022/02/18 12:44:36;;;;;;;3.85;2.22;;;;;;;7.53;60.14;99442.05;1718126;83;21233;-61
2022/02/18 12:47:45;;;;;;;4.45;2.60;;;;;;;7.54;60.44;99443.23;1787051;80;21227;-60
2022/02/18 12:50:54;;;;;;;6.75;4.97;;;;;;;7.60;60.54;99453.91;1771842;80;21724;-60
2022/02/18 12:54:02;;;;;;;4.50;3.80;;;;;;;7.60;60.42;99462.08;1751494;81;21350;-59
2022/02/18 12:57:07;;;;;;;4.33;2.70;;;;;;;7.56;60.50;99477.92;1761558;81;21712;-60
2022/02/18 13:00:18;;;;;;;9.08;6.25;;;;;;;7.54;60.45;99475.91;1760031;81;21232;-60
2022/02/18 13:03:25;;;;;;;9.55;6.97;;;;;;;7.60;60.54;99472.97;1746697;81;21244;-59
2022/02/18 13:06:33;;;;;;;12.63;9.23;;;;;;;7.81;60.43;99476.41;1734578;81;21752;-61
2022/02/18 13:09:38;;;;;;;13.83;9.35;;;;;;;8.14;59.98;99479.23;1760638;81;21904;-60
2022/02/18 13:12:53;;;;;;;11.48;9.38;;;;;;;8.41;59.52;99490.97;1758196;81;21825;-60
2022/02/18 13:16:08;;;;;;;9.30;5.97;;;;;;;8.57;58.47;99489.47;1733601;82;21227;-60
2022/02/18 13:19:22;;;;;;;4.55;3.08;;;;;;;8.57;58.07;99500.38;1733225;82;21209;-60
2022/02/18 13:22:45;;;;;;;3.42;1.95;;;;;;;8.57;57.47;99499.02;1752083;81;21433;-60
2022/02/18 13:26:02;;;;;;;2.40;1.30;;;;;;;8.59;57.20;99505.96;1731536;81;21318;-61
2022/02/18 13:29:08;;;;;;;4.80;1.70;;;;;;;8.62;56.90;99515.67;1757390;80;21223;-61
2022/02/18 13:32:27;;;;;;;4.42;2.40;;;;;;;8.61;56.67;99524.91;1733459;81;21338;-62
2022/02/18 13:35:36;;;;;;;3.37;2.10;;;;;;;8.62;56.46;99536.14;1727529;79;21225;-60
2022/02/18 13:38:45;;;;;;;7.28;2.77;;;;;;;8.59;56.36;99535.97;1757884;80;21172;-61
2022/02/18 13:41:53;;;;;;;6.33;2.20;;;;;;;8.68;56.66;99547.67;1745618;80;21741;-59
2022/02/18 13:45:09;;;;;;;5.58;2.90;;;;;;;8.79;56.05;99560.36;1741782;80;21287;-60
2022/02/18 13:48:15;;;;;;;2.72;1.40;;;;;;;8.83;55.79;99556.22;1737771;81;22121;-61
2022/02/18 13:51:21;;;;;;;6.03;3.55;;;;;;;8.93;55.43;99569.60;1719411;81;21191;-60
2022/02/18 13:54:41;;;;;;;4.15;2.52;;;;;;;8.94;55.20;99580.33;1708806;81;21283;-60
2022/02/18 13:57:45;;;;;;;6.10;3.33;;;;;;;8.94;55.02;99580.88;1745615;81;21188;-61
2022/02/18 14:00:51;;;;;;;5.58;3.60;;;;;;;8.74;55.12;99587.85;1765585;80;21691;-61
2022/02/18 14:04:00;;;;;;;7.50;5.00;;;;;;;8.54;55.66;99584.80;1759267;80;21184;-60
2022/02/18 14:07:14;;;;;;;10.18;5.92;;;;;;;8.41;56.10;99592.73;1751153;81;21173;-61
2022/02/18 14:10:23;;;;;;;12.68;7.75;;;;;;;8.28;56.63;99603.88;1769398;79;21264;-60
2022/02/18 14:13:34;;;;;;;22.13;14.15;;;;;;;8.19;56.91;99603.07;1767630;80;21173;-61
2022/02/18 14:16:39;;;;;;;30.45;18.23;;;;;;;8.10;57.29;99601.94;1765249;80;21240;-61
2022/02/18 14:20:00;;;;;;;38.42;26.57;;;;;;;8.03;57.67;99602.30;1767846;79;21209;-61
2022/02/18 14:23:07;;;;;;;46.15;30.30;;;;;;;8.00;58.03;99608.97;1736952;82;21480;-61
2022/02/18 14:26:22;;;;;;;61.10;39.48;;;;;;;7.98;58.27;99612.87;1741567;80;21825;-61
2022/02/18 14:29:28;;;;;;;59.23;36.45;;;;;;;7.93;58.26;99623.50;1768495;80;21567;-60
2022/02/18 14:32:40;;;;;;;59.42;34.78;;;;;;;7.82;58.31;99627.44;1757027;80;21205;-61
2022/02/18 14:35:47;;;;;;;18.30;10.98;;;;;;;7.75;58.49;99630.55;1766078;80;21221;-61
2022/02/18 14:39:02;;;;;;;10.58;6.10;;;;;;;7.73;58.78;99633.95;1766645;80;21193;-61
2022/02/18 14:42:15;;;;;;;6.85;4.17;;;;;;;7.71;58.79;99633.27;1738392;82;21317;-61
2022/02/18 14:45:31;;;;;;;4.22;3.40;;;;;;;7.70;58.89;99638.89;1738456;81;21272;-61
2022/02/18 14:48:38;;;;;;;4.78;2.77;;;;;;;7.67;59.06;99644.70;1767355;80;21271;-61